Divernon, IL (62530)

10:36 PM CST on January 17, 2017 (GMT -0600)
Thomas R. Beynon Sub. #1 | | Change Station

Elev 623 ft 39.56 °N, 89.65 °W | Updated 13 seconds ago

Overcast
Overcast
37.7 °F
Feels Like 33 °F
N
6.0
Wind Variable Wind from West

Today
High -- | Low -- °F
--% Chance of Precip.
Yesterday
High -- | Low -- °F
Precip. -- in
Pressure 30.13 in
Visibility 10.0 miles
Clouds Overcast 1200 ft
Windchill 33 °F
Dew Point 35 °F
Humidity 91%
Rainfall 0.02 in
Snow Depth Not available.
7:16 AM 5:01 PM
Waning Gibbous, 67% visible
METAR KTAZ 180415Z AUTO 28013G17KT 10SM OVC012 03/01 A3013 RMK AO2 T00270011
Pressure 30.13 in
Visibility 10.0 miles
Clouds Overcast 1200 ft
Windchill 33 °F
Dew Point 35 °F
Humidity 91%
Rainfall 0.02 in
Snow Depth Not available.
7:16 AM 5:01 PM
Waning Gibbous, 67% visible
METAR KTAZ 180415Z AUTO 28013G17KT 10SM OVC012 03/01 A3013 RMK AO2 T00270011

Get Your Daily Forecast Email!

Thanks for signing up!

Be on the lookout for a verification email in your inbox.

You'll start receiving the daily forecast at 8 AM.

×

10-Day Weather Forecast

Almanac

Astronomy

Jan. 17, 2017 Rise Set
Actual Time
Civil Twilight
Nautical Twilight
Astronomical Twilight
Moon
Length of Visible Light
Length of Day
Tomorrow will be .
, % of the Moon is Illuminated

Today's Extremes

State Highs State Lows

Community

WunderPhotos

Upload Photos

1,962,540 photos uploaded!

WunderBlog® & News

Nearby

Air Quality

  Air Quality AQ Index Pollutant
Not available.

Snow Depth

Station Depth Elevation

Earthquake Activity

City Distance Mag. Time & Date
Minimum magnitude displayed is 2.5.

Coastal Water Temperatures

Place Temperature

Stations

Nearby Weather Stations

Station Location Temp. Windchill Dew Point Humidity Wind Precip. Elev Updated Type
                   

Watches & Warnings

There are currently no watches in effect.